Time;durP1;ratioP1;P1;durP2;ratioP2;P2;SDS_P1;SDS_P2;PMS_P1;PMS_P2;Temp;Humidity;BMP_temperature;BMP_pressure;BME280_temperature;BME280_humidity;BME280_pressure;Samples;Min_cycle;Max_cycle;Signal;HPM_P1;HPM_P2
2023/02/20 00:00:24;;;;;;;52.40;30.83;;;;;;;8.43;100.00;101635.34;5066781;28;20016;-72
2023/02/20 00:02:50;;;;;;;52.75;33.88;;;;;;;8.36;100.00;101634.06;5062992;28;20134;-72
2023/02/20 00:05:16;;;;;;;55.22;33.35;;;;;;;8.40;100.00;101640.72;5064282;28;20036;-72
2023/02/20 00:07:41;;;;;;;54.47;31.38;;;;;;;8.43;100.00;101645.72;5064815;28;20036;-72
2023/02/20 00:10:07;;;;;;;49.85;31.15;;;;;;;8.43;100.00;101639.69;5062065;28;20041;-72
2023/02/20 00:12:33;;;;;;;46.40;28.90;;;;;;;8.49;100.00;101637.53;5053727;28;20463;-72
2023/02/20 00:14:58;;;;;;;48.35;29.25;;;;;;;8.55;100.00;101637.09;5062285;28;20115;-72
2023/02/20 00:17:24;;;;;;;45.67;26.65;;;;;;;8.60;100.00;101631.59;5064605;28;20033;-72
2023/02/20 00:19:49;;;;;;;47.25;27.30;;;;;;;8.58;100.00;101626.50;5065522;28;20034;-72
2023/02/20 00:22:15;;;;;;;37.78;24.52;;;;;;;8.62;100.00;101624.53;5057073;28;20028;-72
2023/02/20 00:24:40;;;;;;;40.03;23.60;;;;;;;8.64;100.00;101623.47;5057874;28;20083;-72
2023/02/20 00:27:06;;;;;;;33.60;21.83;;;;;;;8.68;100.00;101631.91;5062097;28;20070;-72
2023/02/20 00:29:31;;;;;;;34.95;21.88;;;;;;;8.68;100.00;101631.91;5060924;28;20357;-72
2023/02/20 00:31:57;;;;;;;34.67;20.95;;;;;;;8.70;100.00;101626.59;5063473;28;20135;-72
2023/02/20 00:34:26;;;;;;;37.35;22.20;;;;;;;8.69;100.00;101624.94;5061103;28;20119;-72
2023/02/20 00:36:52;;;;;;;40.28;23.55;;;;;;;8.70;100.00;101626.59;5060882;28;20036;-72
2023/02/20 00:39:17;;;;;;;39.95;22.90;;;;;;;8.66;100.00;101623.38;5060850;28;20476;-72
2023/02/20 00:41:43;;;;;;;50.33;29.65;;;;;;;8.61;100.00;101641.03;5062006;28;20044;-72
2023/02/20 00:44:08;;;;;;;50.38;29.83;;;;;;;8.54;100.00;101647.56;5061779;28;20484;-71
2023/02/20 00:46:34;;;;;;;52.83;33.00;;;;;;;8.48;100.00;101648.00;5062082;28;20115;-72
2023/02/20 00:48:59;;;;;;;47.00;28.88;;;;;;;8.50;100.00;101646.16;5065624;28;20037;-72
2023/02/20 00:51:25;;;;;;;43.47;24.88;;;;;;;8.53;100.00;101651.94;5066970;28;20032;-72
2023/02/20 00:53:51;;;;;;;36.30;21.83;;;;;;;8.61;100.00;101643.63;5050464;28;20387;-71
2023/02/20 00:56:16;;;;;;;33.78;21.02;;;;;;;8.68;100.00;101638.88;5065996;28;20021;-72
2023/02/20 00:58:42;;;;;;;35.42;20.48;;;;;;;8.71;100.00;101636.88;5067404;28;20029;-72
2023/02/20 01:01:07;;;;;;;32.17;19.92;;;;;;;8.74;100.00;101631.50;5069437;28;20127;-72
2023/02/20 01:03:32;;;;;;;31.55;18.98;;;;;;;8.75;100.00;101630.56;5067522;28;20066;-72
2023/02/20 01:05:58;;;;;;;41.55;21.40;;;;;;;8.75;100.00;101640.94;5066106;28;20021;-72
2023/02/20 01:08:24;;;;;;;35.80;20.88;;;;;;;8.76;100.00;101642.59;5066532;28;20115;-72
2023/02/20 01:10:49;;;;;;;34.15;21.00;;;;;;;8.72;100.00;101638.56;5064721;28;20072;-72
2023/02/20 01:13:15;;;;;;;37.08;22.08;;;;;;;8.71;100.00;101638.66;5069005;28;20051;-72
2023/02/20 01:15:40;;;;;;;34.15;21.33;;;;;;;8.67;100.00;101645.00;5065157;28;20033;-72
2023/02/20 01:18:06;;;;;;;32.78;21.30;;;;;;;8.55;100.00;101646.66;5069203;28;20383;-72
2023/02/20 01:20:32;;;;;;;32.50;20.77;;;;;;;8.42;100.00;101645.81;5066067;28;20028;-72
2023/02/20 01:22:57;;;;;;;35.83;21.92;;;;;;;8.29;100.00;101645.75;5067210;28;20104;-72
2023/02/20 01:25:23;;;;;;;36.08;22.13;;;;;;;8.23;100.00;101656.53;5065347;28;20119;-72
2023/02/20 01:27:48;;;;;;;37.80;23.13;;;;;;;8.15;100.00;101649.25;5066985;28;20527;-71
2023/02/20 01:30:14;;;;;;;34.25;20.95;;;;;;;8.12;100.00;101652.06;5066052;28;20044;-72
2023/02/20 01:32:40;;;;;;;38.53;23.27;;;;;;;8.11;100.00;101650.38;5065131;28;20039;-72
2023/02/20 01:35:05;;;;;;;34.75;22.10;;;;;;;8.24;100.00;101638.28;5050540;28;20025;-72
2023/02/20 01:37:31;;;;;;;35.47;21.30;;;;;;;8.27;100.00;101622.50;5067512;28;20056;-72
2023/02/20 01:39:57;;;;;;;32.03;20.10;;;;;;;8.26;100.00;101620.84;5064814;28;20121;-72
2023/02/20 01:42:24;;;;;;;37.42;22.58;;;;;;;8.32;100.00;101622.19;5068578;28;20466;-72
2023/02/20 01:44:50;;;;;;;32.58;19.90;;;;;;;8.35;100.00;101622.03;5064666;28;20356;-72
2023/02/20 01:47:20;;;;;;;36.50;22.00;;;;;;;8.39;100.00;101628.69;5068460;28;20037;-72
2023/02/20 01:49:57;;;;;;;31.45;18.90;;;;;;;8.40;100.00;101629.50;5062409;28;20146;-72
2023/02/20 01:52:25;;;;;;;30.80;19.58;;;;;;;8.35;100.00;101631.56;5059560;28;20150;-72
2023/02/20 01:55:02;;;;;;;40.08;24.02;;;;;;;8.23;100.00;101635.78;5060607;28;20032;-72
2023/02/20 01:57:31;;;;;;;49.08;31.67;;;;;;;8.03;100.00;101631.91;5065988;28;20025;-72
2023/02/20 02:00:03;;;;;;;56.67;33.33;;;;;;;7.89;100.00;101635.38;5062538;28;20021;-71
2023/02/20 02:02:32;;;;;;;65.63;40.53;;;;;;;7.81;100.00;101631.63;5067138;28;20028;-72
2023/02/20 02:04:58;;;;;;;63.75;40.03;;;;;;;7.78;100.00;101639.59;5063813;28;20081;-72
2023/02/20 02:07:25;;;;;;;71.75;44.08;;;;;;;7.69;100.00;101642.78;5068404;28;20028;-72
2023/02/20 02:09:57;;;;;;;75.45;44.75;;;;;;;7.63;100.00;101650.00;5061890;28;20055;-71
2023/02/20 02:12:23;;;;;;;71.00;43.25;;;;;;;7.57;100.00;101660.75;5066629;28;20056;-72
2023/02/20 02:14:49;;;;;;;74.55;46.80;;;;;;;7.51;100.00;101655.16;5066974;28;20047;-72
2023/02/20 02:17:24;;;;;;;74.25;46.72;;;;;;;7.55;100.00;101651.44;5047311;28;20458;-72
2023/02/20 02:20:11;;;;;;;74.05;43.13;;;;;;;7.60;100.00;101637.22;5065697;28;20040;-72
2023/02/20 02:23:14;;;;;;;75.53;42.65;;;;;;;7.65;100.00;101639.53;5063328;28;20031;-71
2023/02/20 02:26:04;;;;;;;76.30;46.33;;;;;;;7.65;100.00;101653.34;5061689;28;20032;-72
2023/02/20 02:28:38;;;;;;;79.30;49.05;;;;;;;7.64;100.00;101648.25;5064811;28;20336;-72
2023/02/20 02:31:03;;;;;;;89.28;53.65;;;;;;;7.61;100.00;101662.25;5060601;28;20098;-72
2023/02/20 02:33:47;;;;;;;83.18;52.30;;;;;;;7.61;100.00;101654.47;5067548;28;20412;-72
2023/02/20 02:36:15;;;;;;;92.13;54.90;;;;;;;7.62;100.00;101658.72;5066345;28;20033;-72
2023/02/20 02:38:53;;;;;;;88.40;52.85;;;;;;;7.60;100.00;101663.16;5064107;28;20032;-72
2023/02/20 02:41:55;;;;;;;72.57;42.88;;;;;;;7.65;100.00;101650.75;5062951;28;20484;-72
2023/02/20 02:44:23;;;;;;;80.00;49.80;;;;;;;7.71;100.00;101662.50;5059370;28;20500;-72
2023/02/20 02:46:55;;;;;;;77.57;47.80;;;;;;;7.69;100.00;101659.16;5065561;28;20028;-72
2023/02/20 02:50:08;;;;;;;83.82;52.92;;;;;;;7.65;100.00;101653.34;5063142;28;20075;-71
2023/02/20 02:52:49;;;;;;;84.00;51.05;;;;;;;7.60;100.00;101654.56;5047589;28;20078;-72
2023/02/20 02:55:21;;;;;;;73.25;46.75;;;;;;;7.61;100.00;101651.03;5059739;28;20048;-71
2023/02/20 02:57:47;;;;;;;78.63;48.95;;;;;;;7.71;100.00;101661.66;5062268;28;20113;-71
2023/02/20 03:00:15;;;;;;;75.95;48.60;;;;;;;7.69;100.00;101663.53;5066788;28;20188;-72
2023/02/20 03:03:10;;;;;;;78.68;49.80;;;;;;;7.65;100.00;101658.53;5063789;28;20069;-72
2023/02/20 03:05:49;;;;;;;90.65;56.90;;;;;;;7.62;100.00;101663.06;5063826;28;20149;-72
2023/02/20 03:08:30;;;;;;;90.18;54.50;;;;;;;7.55;100.00;101667.00;5065150;28;20101;-72
2023/02/20 03:11:03;;;;;;;65.28;40.33;;;;;;;7.65;100.00;101668.06;5060695;28;20044;-72
2023/02/20 03:16:21;;;;;;;27.45;17.05;;;;;;;8.07;100.00;101671.44;5066162;28;20116;-72
2023/02/20 03:18:49;;;;;;;27.63;16.00;;;;;;;8.18;100.00;101667.22;5060851;28;20028;-72
2023/02/20 03:21:18;;;;;;;26.77;15.68;;;;;;;8.23;100.00;101672.13;5064209;28;20039;-72
2023/02/20 03:23:49;;;;;;;25.52;15.70;;;;;;;8.15;100.00;101672.63;5058516;28;20048;-72
2023/02/20 03:26:21;;;;;;;27.98;16.67;;;;;;;8.12;100.00;101667.63;5064963;28;20036;-72
2023/02/20 03:29:01;;;;;;;23.55;15.25;;;;;;;8.05;100.00;101665.53;5063673;28;20044;-72
2023/02/20 03:31:34;;;;;;;26.45;14.77;;;;;;;7.93;100.00;101664.56;5062700;28;20148;-72
2023/02/20 03:45:40;;;;;;;28.13;15.68;;;;;;;7.42;100.00;101679.91;5063064;28;20067;-72
2023/02/20 03:48:39;;;;;;;25.63;15.70;;;;;;;7.37;100.00;101679.34;5063917;28;20184;-71
2023/02/20 03:51:05;;;;;;;24.90;14.98;;;;;;;7.41;100.00;101685.16;5066827;28;20040;-72
2023/02/20 03:53:32;;;;;;;23.73;15.13;;;;;;;7.38;100.00;101686.19;5059006;28;20025;-72
2023/02/20 03:56:02;;;;;;;26.15;15.05;;;;;;;7.31;100.00;101683.13;5063228;28;20040;-71
2023/02/20 03:58:33;;;;;;;30.20;17.05;;;;;;;7.21;100.00;101689.81;5065371;28;20483;-72
2023/02/20 04:01:02;;;;;;;26.95;16.58;;;;;;;7.13;100.00;101689.44;5064778;28;20172;-72
2023/02/20 04:03:32;;;;;;;28.05;17.25;;;;;;;7.06;100.00;101697.69;5064550;28;20059;-71
2023/02/20 04:05:59;;;;;;;28.75;17.02;;;;;;;6.95;100.00;101686.22;5059184;28;20078;-71
2023/02/20 04:08:35;;;;;;;28.30;17.45;;;;;;;6.87;100.00;101692.75;5061942;28;20110;-72
2023/02/20 04:11:13;;;;;;;28.38;16.65;;;;;;;6.77;100.00;101687.28;5062264;28;20043;-71
2023/02/20 04:13:40;;;;;;;29.38;17.70;;;;;;;6.66;100.00;101684.50;5060280;28;20036;-71
2023/02/20 04:16:06;;;;;;;25.48;15.80;;;;;;;6.57;100.00;101688.47;5062404;28;20518;-71
2023/02/20 04:18:33;;;;;;;28.38;16.52;;;;;;;6.52;100.00;101695.66;5064318;28;20071;-71
2023/02/20 04:21:01;;;;;;;30.45;18.48;;;;;;;6.46;100.00;101695.19;5063004;28;20475;-71
2023/02/20 04:23:30;;;;;;;28.67;16.45;;;;;;;6.46;100.00;101701.19;5060890;28;20115;-71
2023/02/20 04:26:01;;;;;;;27.58;16.33;;;;;;;6.47;100.00;101705.47;5064639;28;20029;-71
2023/02/20 04:28:27;;;;;;;30.60;16.77;;;;;;;6.46;100.00;101705.53;5068026;28;20020;-71
2023/02/20 04:30:53;;;;;;;26.35;15.18;;;;;;;6.46;100.00;101710.72;5068325;28;20566;-71
2023/02/20 04:33:19;;;;;;;26.63;15.82;;;;;;;6.45;100.00;101709.06;5069125;28;20040;-71
2023/02/20 04:35:45;;;;;;;27.50;15.77;;;;;;;6.40;100.00;101709.31;5068259;28;20128;-71
2023/02/20 04:38:11;;;;;;;28.20;16.95;;;;;;;6.45;100.00;101714.22;5050769;28;20248;-72
2023/02/20 04:40:36;;;;;;;28.63;17.88;;;;;;;6.43;100.00;101705.72;5068894;28;20373;-71
2023/02/20 04:43:02;;;;;;;29.13;17.58;;;;;;;6.37;100.00;101711.25;5067052;28;20029;-71
2023/02/20 04:45:28;;;;;;;30.73;17.48;;;;;;;6.29;100.00;101707.31;5068219;28;20470;-72
2023/02/20 04:47:54;;;;;;;27.50;16.55;;;;;;;6.28;100.00;101718.59;5067586;28;20486;-71
2023/02/20 04:50:30;;;;;;;26.38;14.50;;;;;;;6.36;100.00;101717.34;5068522;28;20379;-71
2023/02/20 04:52:56;;;;;;;24.92;15.23;;;;;;;6.45;100.00;101719.41;5066195;28;20070;-71
2023/02/20 04:55:22;;;;;;;26.05;15.18;;;;;;;6.46;100.00;101724.50;5066554;28;20827;-71
2023/02/20 04:57:48;;;;;;;25.60;15.45;;;;;;;6.39;100.00;101722.34;5067456;28;20547;-72
2023/02/20 05:00:16;;;;;;;26.20;14.77;;;;;;;6.32;100.00;101717.50;5067152;28;20112;-71
2023/02/20 05:02:42;;;;;;;26.58;15.55;;;;;;;6.31;100.00;101715.84;5063607;28;20020;-71
2023/02/20 05:05:19;;;;;;;25.17;14.63;;;;;;;6.28;100.00;101722.94;5068593;28;20032;-71
2023/02/20 05:07:45;;;;;;;27.90;15.70;;;;;;;6.26;100.00;101719.59;5060336;28;20023;-71
2023/02/20 05:10:15;;;;;;;28.50;15.60;;;;;;;6.26;100.00;101720.44;5066456;28;20052;-71
2023/02/20 05:12:40;;;;;;;28.45;15.98;;;;;;;6.30;100.00;101718.50;5060600;28;20020;-72
2023/02/20 05:15:06;;;;;;;32.15;15.63;;;;;;;6.25;100.00;101721.34;5065980;28;20400;-71
2023/02/20 05:17:31;;;;;;;30.15;16.65;;;;;;;6.20;100.00;101725.97;5067574;28;20041;-71
2023/02/20 05:19:57;;;;;;;26.73;15.70;;;;;;;6.11;100.00;101731.66;5068253;28;20032;-71
2023/02/20 05:22:22;;;;;;;30.25;15.02;;;;;;;6.06;100.00;101733.69;5061519;28;20509;-71
2023/02/20 05:24:49;;;;;;;27.80;15.45;;;;;;;6.04;100.00;101745.03;5062508;28;20024;-71
2023/02/20 05:27:17;;;;;;;28.48;15.60;;;;;;;6.04;100.00;101740.69;5061525;28;20023;-71
2023/02/20 05:29:56;;;;;;;24.05;14.77;;;;;;;6.03;100.00;101733.84;5068902;28;20383;-71
2023/02/20 05:32:23;;;;;;;28.02;15.82;;;;;;;6.02;100.00;101745.09;5065227;28;20445;-71
2023/02/20 05:34:49;;;;;;;30.15;15.85;;;;;;;5.99;100.00;101740.09;5066098;28;20099;-71
2023/02/20 05:37:16;;;;;;;28.35;16.50;;;;;;;5.97;100.00;101757.47;5064296;28;20044;-71
2023/02/20 05:39:42;;;;;;;30.23;17.70;;;;;;;5.90;100.00;101761.28;5063632;28;20029;-71
2023/02/20 05:42:08;;;;;;;30.17;16.52;;;;;;;5.85;100.00;101760.66;5065484;28;20043;-71
2023/02/20 05:44:34;;;;;;;29.55;16.20;;;;;;;5.82;100.00;101758.25;5049043;28;20064;-71
2023/02/20 05:47:00;;;;;;;28.90;16.08;;;;;;;5.81;100.00;101749.66;5066341;28;20028;-71
2023/02/20 05:49:26;;;;;;;31.17;16.73;;;;;;;5.84;100.00;101759.00;5057915;28;20460;-71
2023/02/20 05:51:51;;;;;;;25.92;15.73;;;;;;;5.90;100.00;101758.72;5063744;28;20036;-71
2023/02/20 05:54:18;;;;;;;28.45;15.45;;;;;;;5.91;100.00;101760.38;5061763;28;20052;-71
2023/02/20 05:56:45;;;;;;;25.67;15.15;;;;;;;5.93;100.00;101758.53;5063387;28;20032;-71
2023/02/20 05:59:11;;;;;;;24.00;14.43;;;;;;;5.95;100.00;101759.28;5067159;28;20435;-71
2023/02/20 06:01:37;;;;;;;29.02;16.40;;;;;;;5.94;100.00;101761.03;5062263;28;20032;-71
2023/02/20 06:04:03;;;;;;;27.52;15.43;;;;;;;5.94;100.00;101760.22;5063819;28;20101;-71
2023/02/20 06:06:36;;;;;;;30.42;16.02;;;;;;;5.94;100.00;101763.63;5065405;28;20028;-71
2023/02/20 06:09:03;;;;;;;27.38;15.75;;;;;;;5.97;100.00;101766.06;5067767;28;20055;-71
2023/02/20 06:11:28;;;;;;;33.88;16.85;;;;;;;5.99;100.00;101763.38;5068044;28;20044;-71
2023/02/20 06:13:54;;;;;;;31.08;17.73;;;;;;;6.02;100.00;101773.56;5063515;28;20044;-71
2023/02/20 06:16:28;;;;;;;29.73;17.15;;;;;;;6.07;100.00;101775.91;5064190;28;20119;-71
2023/02/20 06:18:54;;;;;;;27.33;14.52;;;;;;;6.07;100.00;101776.75;5066026;28;20037;-71
2023/02/20 06:21:22;;;;;;;24.90;14.88;;;;;;;6.13;100.00;101786.75;5048427;28;20407;-71
2023/02/20 06:23:48;;;;;;;25.50;15.23;;;;;;;6.14;100.00;101780.66;5061055;28;20032;-71
2023/02/20 06:26:14;;;;;;;27.38;15.00;;;;;;;6.19;100.00;101789.00;5067988;28;20033;-71
2023/02/20 06:28:39;;;;;;;27.30;16.08;;;;;;;6.15;100.00;101784.91;5065785;28;20085;-71
2023/02/20 06:31:06;;;;;;;30.63;15.35;;;;;;;6.11;100.00;101786.00;5066656;28;20020;-71
2023/02/20 06:33:32;;;;;;;29.15;15.73;;;;;;;6.13;100.00;101786.75;5066987;28;20072;-71
2023/02/20 06:35:58;;;;;;;28.15;15.35;;;;;;;6.20;100.00;101793.25;5066298;28;20071;-71
2023/02/20 06:38:24;;;;;;;21.77;14.25;;;;;;;6.23;100.00;101785.31;5062877;28;20138;-71
2023/02/20 06:40:50;;;;;;;26.17;15.60;;;;;;;6.27;100.00;101792.00;5062840;28;20098;-71
2023/02/20 06:43:16;;;;;;;29.45;14.52;;;;;;;6.27;100.00;101798.91;5064639;28;20036;-71
2023/02/20 06:45:41;;;;;;;27.17;15.30;;;;;;;6.22;100.00;101794.00;5053619;28;20039;-71
2023/02/20 06:48:07;;;;;;;28.88;15.40;;;;;;;6.18;100.00;101810.59;5066654;28;20091;-71
2023/02/20 06:50:32;;;;;;;26.48;15.48;;;;;;;6.15;100.00;101804.75;5065450;28;20040;-71
2023/02/20 06:52:58;;;;;;;31.98;15.80;;;;;;;6.14;100.00;101808.31;5055620;28;20125;-71
2023/02/20 06:55:23;;;;;;;28.42;16.83;;;;;;;6.19;100.00;101807.09;5062587;28;20066;-71
2023/02/20 06:57:48;;;;;;;31.80;16.35;;;;;;;6.23;100.00;101807.78;5065290;28;20190;-71
2023/02/20 07:00:15;;;;;;;27.52;14.82;;;;;;;6.25;100.00;101811.13;5066037;28;20035;-71
2023/02/20 07:02:40;;;;;;;27.42;15.32;;;;;;;6.36;100.00;101806.19;5065717;28;20567;-71
2023/02/20 07:05:07;;;;;;;25.17;15.45;;;;;;;6.47;100.00;101815.94;5063197;28;20056;-71
2023/02/20 07:07:33;;;;;;;24.55;15.27;;;;;;;6.55;100.00;101811.19;5062802;28;20021;-71
2023/02/20 07:10:00;;;;;;;27.42;16.27;;;;;;;6.57;100.00;101809.34;5053937;28;20090;-71
2023/02/20 07:12:31;;;;;;;27.45;16.13;;;;;;;6.62;100.00;101807.31;5061841;28;20459;-71
2023/02/20 07:14:58;;;;;;;25.88;14.70;;;;;;;6.80;100.00;101808.84;5039521;28;20068;-71
2023/02/20 07:17:24;;;;;;;25.17;14.38;;;;;;;6.79;100.00;101811.53;5064065;28;20037;-71
2023/02/20 07:19:50;;;;;;;23.70;14.07;;;;;;;6.72;100.00;101805.88;5065113;28;20406;-71
2023/02/20 07:22:17;;;;;;;25.40;14.90;;;;;;;6.69;100.00;101807.78;5059266;28;20104;-71
2023/02/20 07:24:42;;;;;;;31.92;15.52;;;;;;;6.64;100.00;101802.88;5060657;28;20032;-71
2023/02/20 07:27:09;;;;;;;24.75;15.20;;;;;;;6.62;100.00;101799.53;5062466;28;20141;-71
2023/02/20 07:29:36;;;;;;;32.15;15.32;;;;;;;6.66;100.00;101806.22;5043869;28;20059;-71
2023/02/20 07:32:03;;;;;;;28.13;14.48;;;;;;;6.68;100.00;101811.31;5043916;28;20043;-71
2023/02/20 07:34:28;;;;;;;23.67;13.98;;;;;;;6.73;100.00;101812.72;5058542;28;20048;-71
2023/02/20 07:36:54;;;;;;;29.83;15.13;;;;;;;6.81;100.00;101809.69;5063481;28;20039;-71
2023/02/20 07:39:20;;;;;;;23.33;14.15;;;;;;;6.88;100.00;101809.25;5058907;28;20448;-71
2023/02/20 07:41:49;;;;;;;25.55;15.15;;;;;;;6.89;100.00;101805.75;5058061;28;20029;-71
2023/02/20 07:44:15;;;;;;;26.35;14.98;;;;;;;6.88;100.00;101809.25;5057460;28;20020;-71
2023/02/20 07:46:40;;;;;;;26.13;15.90;;;;;;;6.94;100.00;101811.50;5057838;28;20048;-71
2023/02/20 07:49:06;;;;;;;25.00;14.57;;;;;;;6.98;100.00;101813.00;5062647;28;20028;-71
2023/02/20 07:51:32;;;;;;;26.23;14.68;;;;;;;7.02;100.00;101805.03;5064081;28;20028;-71
2023/02/20 07:53:57;;;;;;;24.85;14.70;;;;;;;7.14;100.00;101809.50;5059493;28;20020;-71
2023/02/20 07:56:23;;;;;;;23.95;14.45;;;;;;;7.25;99.67;101805.34;5060817;28;20058;-71
2023/02/20 07:58:49;;;;;;;25.17;14.43;;;;;;;7.38;99.19;101797.69;5061437;28;20025;-71
2023/02/20 08:01:15;;;;;;;29.77;14.57;;;;;;;7.43;99.00;101794.81;5059927;28;20117;-71
2023/02/20 08:03:40;;;;;;;24.20;14.15;;;;;;;7.51;98.12;101792.59;5060653;28;20506;-70
2023/02/20 08:06:06;;;;;;;26.45;15.02;;;;;;;7.56;98.15;101798.34;5059753;28;20365;-71
2023/02/20 08:08:31;;;;;;;23.90;13.88;;;;;;;7.62;97.35;101795.34;5060204;28;20025;-70
2023/02/20 08:10:57;;;;;;;24.10;12.85;;;;;;;7.76;97.70;101797.94;5063131;28;20044;-70
2023/02/20 08:13:22;;;;;;;25.50;13.80;;;;;;;7.86;97.28;101796.47;5058795;28;20052;-69
2023/02/20 08:15:48;;;;;;;26.38;13.48;;;;;;;7.91;97.03;101791.00;5061359;28;20024;-70
2023/02/20 08:18:14;;;;;;;23.55;13.68;;;;;;;7.95;96.52;101790.72;5056830;28;20120;-70
2023/02/20 08:20:39;;;;;;;25.83;13.68;;;;;;;7.94;96.50;101789.03;5056726;28;20052;-71
2023/02/20 08:23:05;;;;;;;28.08;15.38;;;;;;;7.96;96.05;101791.53;5059662;28;20028;-70
2023/02/20 08:25:31;;;;;;;27.17;16.50;;;;;;;7.97;96.24;101793.22;5054916;28;20025;-71
2023/02/20 08:27:57;;;;;;;29.48;15.82;;;;;;;7.99;95.83;101801.72;5056630;28;20035;-71
2023/02/20 08:30:28;;;;;;;24.73;13.30;;;;;;;8.01;94.44;101801.63;5057769;28;20059;-70
2023/02/20 08:32:54;;;;;;;25.05;13.73;;;;;;;8.07;95.30;101807.25;5060556;28;20028;-70
2023/02/20 08:35:20;;;;;;;19.98;13.27;;;;;;;8.14;95.03;101805.13;5056889;28;20102;-69
2023/02/20 08:37:45;;;;;;;21.25;13.18;;;;;;;8.16;94.75;101803.25;5060653;28;20040;-70
2023/02/20 08:40:12;;;;;;;20.42;12.43;;;;;;;8.20;94.03;101805.56;5057376;28;20499;-70
2023/02/20 08:42:37;;;;;;;19.48;12.05;;;;;;;8.30;94.59;101803.22;5051829;28;20129;-70
2023/02/20 08:45:04;;;;;;;26.73;14.55;;;;;;;8.38;95.02;101807.97;5057269;28;20025;-70
2023/02/20 08:47:30;;;;;;;24.63;14.52;;;;;;;8.43;95.42;101795.53;5052575;28;20528;-70
2023/02/20 08:49:55;;;;;;;26.13;16.42;;;;;;;8.52;95.74;101794.91;5055941;28;20037;-71
2023/02/20 08:52:21;;;;;;;24.15;15.82;;;;;;;8.59;95.99;101801.38;5060242;28;20035;-71
2023/02/20 08:54:47;;;;;;;32.50;16.23;;;;;;;8.60;96.51;101790.06;5053876;28;20073;-70
2023/02/20 08:57:14;;;;;;;26.60;16.60;;;;;;;8.63;96.86;101792.44;5060525;28;20044;-70
2023/02/20 08:59:39;;;;;;;30.15;18.60;;;;;;;8.63;98.07;101787.25;5055539;28;20044;-70
2023/02/20 09:02:05;;;;;;;31.45;20.15;;;;;;;8.68;98.66;101794.75;5054883;28;20043;-70
2023/02/20 09:04:31;;;;;;;33.08;19.83;;;;;;;8.74;98.18;101794.34;5053534;28;20029;-70
2023/02/20 09:06:57;;;;;;;28.52;19.90;;;;;;;8.78;99.35;101791.47;5048877;28;20032;-70
2023/02/20 09:09:23;;;;;;;31.42;20.80;;;;;;;8.87;99.93;101796.06;5052236;28;20258;-69
2023/02/20 09:11:48;;;;;;;31.73;22.77;;;;;;;8.94;100.00;101797.31;5050141;28;20045;-69
2023/02/20 09:14:13;;;;;;;29.83;21.40;;;;;;;9.02;100.00;101791.59;5056414;28;20040;-73
2023/02/20 09:16:40;;;;;;;34.40;24.15;;;;;;;9.06;100.00;101785.25;5052425;28;20040;-73
2023/02/20 09:19:08;;;;;;;34.13;22.38;;;;;;;9.07;100.00;101792.13;5057425;28;20526;-72
2023/02/20 09:21:33;;;;;;;31.65;21.90;;;;;;;9.11;100.00;101796.19;5054340;28;20076;-72
2023/02/20 09:23:59;;;;;;;32.63;21.23;;;;;;;9.18;100.00;101794.00;5055624;28;20064;-72
2023/02/20 09:26:24;;;;;;;31.98;21.10;;;;;;;9.16;100.00;101796.69;5058359;28;20032;-72
2023/02/20 09:28:50;;;;;;;31.95;20.25;;;;;;;9.27;100.00;101790.78;5042497;28;20035;-72
2023/02/20 09:31:15;;;;;;;36.53;21.40;;;;;;;9.38;99.81;101785.69;5046409;28;20458;-72
2023/02/20 09:33:45;;;;;;;39.13;22.40;;;;;;;9.37;99.17;101789.22;5061154;28;20032;-72
2023/02/20 09:36:10;;;;;;;42.67;22.65;;;;;;;9.38;99.41;101790.91;5064704;28;20029;-73
2023/02/20 09:38:36;;;;;;;34.90;21.65;;;;;;;9.29;99.86;101781.09;5039801;28;20518;-72
2023/02/20 09:41:02;;;;;;;31.27;21.23;;;;;;;9.29;100.00;101781.94;5062443;28;20108;-72
2023/02/20 09:43:33;;;;;;;40.53;21.48;;;;;;;9.27;100.00;101790.78;5063342;28;20036;-72
2023/02/20 09:46:31;;;;;;;31.13;21.45;;;;;;;9.32;99.75;101771.34;5063876;28;20400;-72
2023/02/20 09:49:16;;;;;;;33.90;23.13;;;;;;;9.39;99.36;101771.75;5008527;28;20495;-72
2023/02/20 09:51:51;;;;;;;34.30;21.83;;;;;;;9.46;99.45;101767.75;5049296;28;20127;-72
2023/02/20 09:54:21;;;;;;;30.90;21.05;;;;;;;9.57;98.64;101764.44;5060537;28;20028;-74
2023/02/20 09:56:55;;;;;;;30.23;20.70;;;;;;;9.65;98.28;101772.53;5062722;28;20375;-71
2023/02/20 09:59:47;;;;;;;29.48;19.38;;;;;;;9.71;97.64;101768.69;5062631;28;20028;-72
2023/02/20 10:02:15;;;;;;;28.30;19.77;;;;;;;9.79;98.01;101768.97;5066535;28;20090;-73
2023/02/20 10:05:05;;;;;;;28.38;20.33;;;;;;;9.84;97.99;101764.28;5063247;28;20040;-73
2023/02/20 10:07:36;;;;;;;33.58;21.50;;;;;;;9.96;98.09;101766.81;5044971;28;20119;-73
2023/02/20 10:10:19;;;;;;;32.97;20.98;;;;;;;10.09;97.08;101766.78;5042481;28;20120;-73
2023/02/20 10:13:02;;;;;;;27.23;19.20;;;;;;;10.22;96.09;101758.97;5063142;28;20040;-73
2023/02/20 10:15:58;;;;;;;33.30;20.15;;;;;;;10.34;95.33;101768.50;5065070;28;20236;-73
2023/02/20 10:18:32;;;;;;;29.70;18.80;;;;;;;10.46;95.29;101758.94;5064680;28;20052;-73
2023/02/20 10:21:13;;;;;;;25.45;17.00;;;;;;;10.49;94.82;101771.75;5059252;28;20508;-73
2023/02/20 10:23:48;;;;;;;27.90;18.40;;;;;;;10.55;95.07;101766.09;5059379;28;20444;-72
2023/02/20 10:26:25;;;;;;;30.05;19.15;;;;;;;10.66;94.40;101768.75;5065013;28;20078;-73
2023/02/20 10:28:51;;;;;;;28.48;17.98;;;;;;;10.75;94.27;101755.03;5064436;28;20119;-72
2023/02/20 10:31:38;;;;;;;30.50;19.42;;;;;;;10.89;92.44;101761.78;5062528;28;20119;-72
2023/02/20 10:34:22;;;;;;;32.50;18.25;;;;;;;11.05;91.28;101749.28;5064000;28;20035;-72
2023/02/20 10:36:54;;;;;;;26.95;18.83;;;;;;;11.11;91.60;101753.19;5061840;28;20104;-73
2023/02/20 10:39:21;;;;;;;29.70;18.92;;;;;;;11.22;91.41;101748.00;5064843;28;20094;-72
2023/02/20 10:42:27;;;;;;;25.52;18.17;;;;;;;11.34;90.49;101741.00;5061519;28;20108;-72
2023/02/20 10:45:00;;;;;;;26.17;17.75;;;;;;;11.30;91.36;101748.25;4957105;28;20039;-72
2023/02/20 10:47:47;;;;;;;24.38;16.50;;;;;;;11.25;91.35;101740.75;4966028;28;20551;-73
2023/02/20 10:50:40;;;;;;;24.42;16.17;;;;;;;11.27;91.33;101738.03;4965658;28;20038;-72
2023/02/20 10:53:30;;;;;;;21.48;14.85;;;;;;;11.36;91.10;101737.31;4954026;28;20166;-73
2023/02/20 10:55:56;;;;;;;21.35;14.52;;;;;;;11.51;90.29;101728.28;4961861;28;20135;-73
2023/02/20 10:58:30;;;;;;;23.42;14.98;;;;;;;11.62;88.96;101723.06;4961024;28;20149;-73
2023/02/20 11:01:07;;;;;;;20.10;14.13;;;;;;;11.72;88.42;101709.28;4971295;28;20041;-74
2023/02/20 11:04:01;;;;;;;20.00;14.23;;;;;;;11.79;87.73;101713.09;4952492;28;20113;-75
2023/02/20 11:06:37;;;;;;;22.80;14.15;;;;;;;11.86;87.75;101714.25;4976213;28;20076;-74
2023/02/20 11:09:03;;;;;;;20.75;14.18;;;;;;;11.93;87.17;101712.81;4964669;28;20035;-69
2023/02/20 11:11:55;;;;;;;22.13;14.65;;;;;;;11.99;86.07;101701.03;4962289;28;20058;-70
2023/02/20 11:14:42;;;;;;;19.40;13.13;;;;;;;12.00;85.08;101698.31;4963537;28;20489;-74
2023/02/20 11:17:14;;;;;;;19.05;13.38;;;;;;;11.92;85.40;101695.47;4975066;28;20035;-74
2023/02/20 11:20:31;;;;;;;19.95;13.13;;;;;;;11.95;83.11;101690.84;5051644;28;20060;-73
2023/02/20 11:22:56;;;;;;;20.92;14.00;;;;;;;12.06;84.07;101684.75;5023918;28;20060;-73
2023/02/20 11:25:26;;;;;;;18.65;13.02;;;;;;;12.11;83.81;101680.00;5067403;28;20024;-71
2023/02/20 11:27:56;;;;;;;19.30;14.32;;;;;;;12.15;83.86;101677.97;5049677;28;20035;-68
2023/02/20 11:30:34;;;;;;;21.02;14.70;;;;;;;12.16;82.77;101672.59;5057722;28;20055;-71
2023/02/20 11:33:10;;;;;;;19.38;13.88;;;;;;;12.29;82.43;101670.63;5056561;28;20180;-73
2023/02/20 11:35:40;;;;;;;21.23;14.73;;;;;;;12.43;81.85;101671.28;5058241;28;20020;-73